Time;durP1;ratioP1;P1;durP2;ratioP2;P2;SDS_P1;SDS_P2;PMS_P1;PMS_P2;Temp;Humidity;BMP_temperature;BMP_pressure;BME280_temperature;BME280_humidity;BME280_pressure;Samples;Min_cycle;Max_cycle;Signal;HPM_P1;HPM_P2
2022/11/15 00:01:42;;;;;;;53.95;26.88;;;7.40;99.90;;;;;;5066639;28;20063;-61
2022/11/15 00:04:10;;;;;;;48.45;26.20;;;7.50;99.90;;;;;;5065353;28;20036;-62
2022/11/15 00:06:35;;;;;;;51.08;26.80;;;7.50;99.90;;;;;;5058669;28;20029;-61
2022/11/15 00:09:01;;;;;;;50.75;27.17;;;7.50;99.90;;;;;;5064800;28;20110;-62
2022/11/15 00:11:27;;;;;;;47.80;27.75;;;7.50;99.90;;;;;;5064830;28;20039;-62
2022/11/15 00:13:57;;;;;;;52.60;25.95;;;7.60;99.90;;;;;;5061045;28;20405;-61
2022/11/15 00:16:23;;;;;;;46.97;26.27;;;7.60;99.90;;;;;;5058188;28;20028;-62
2022/11/15 00:18:49;;;;;;;54.88;26.88;;;7.60;99.90;;;;;;5058592;28;20476;-62
2022/11/15 00:21:15;;;;;;;48.17;25.55;;;7.60;99.90;;;;;;5059724;28;20417;-61
2022/11/15 00:23:41;;;;;;;44.65;25.90;;;7.60;99.90;;;;;;5065105;28;20056;-62
2022/11/15 00:26:10;;;;;;;44.50;26.33;;;7.60;99.90;;;;;;5058230;28;20064;-61
2022/11/15 00:28:36;;;;;;;43.92;26.98;;;7.70;99.90;;;;;;5061210;28;20090;-62
2022/11/15 00:31:03;;;;;;;41.85;23.80;;;7.70;99.90;;;;;;5063128;28;20428;-62
2022/11/15 00:33:29;;;;;;;44.35;26.05;;;7.70;99.90;;;;;;5064019;28;20036;-62
2022/11/15 00:36:01;;;;;;;44.38;25.75;;;7.70;99.90;;;;;;5061168;28;20016;-61
2022/11/15 00:38:31;;;;;;;49.35;27.40;;;7.70;99.90;;;;;;5063743;28;20376;-62
2022/11/15 00:40:56;;;;;;;;;;;7.70;99.90;;;;;;5065792;28;20761;-62
2022/11/15 00:43:21;;;;;;;43.22;25.45;;;7.70;99.90;;;;;;5068938;28;19920;-61
2022/11/15 00:45:47;;;;;;;51.38;26.88;;;7.70;99.90;;;;;;5068340;28;20399;-62
2022/11/15 00:48:12;;;;;;;46.08;26.70;;;7.80;99.90;;;;;;5061213;28;20033;-62
2022/11/15 00:50:38;;;;;;;42.05;25.15;;;7.80;99.90;;;;;;5058306;28;20028;-61
2022/11/15 00:53:03;;;;;;;41.80;26.27;;;7.80;99.90;;;;;;5055508;28;20502;-62
2022/11/15 00:55:29;;;;;;;45.10;27.30;;;7.80;99.90;;;;;;5066367;28;20016;-62
2022/11/15 00:57:54;;;;;;;48.22;27.98;;;7.90;99.90;;;;;;5058406;28;20041;-62
2022/11/15 01:00:20;;;;;;;45.47;27.50;;;7.90;99.90;;;;;;5059470;28;20025;-62
2022/11/15 01:02:45;;;;;;;44.15;27.73;;;8.00;99.90;;;;;;5063521;28;20029;-62
2022/11/15 01:05:11;;;;;;;50.30;28.38;;;8.00;99.90;;;;;;5061281;28;21536;-62
2022/11/15 01:07:36;;;;;;;44.40;27.67;;;8.10;99.90;;;;;;5055875;28;20051;-61
2022/11/15 01:10:03;;;;;;;46.95;28.15;;;8.10;99.90;;;;;;5061963;28;20021;-62
2022/11/15 01:12:29;;;;;;;47.35;30.42;;;8.10;99.90;;;;;;5057659;28;20027;-62
2022/11/15 01:14:54;;;;;;;42.65;28.55;;;8.10;99.90;;;;;;5060321;28;20028;-62
2022/11/15 01:17:20;;;;;;;47.33;29.02;;;8.20;99.90;;;;;;5061601;28;20485;-62
2022/11/15 01:19:45;;;;;;;39.65;26.20;;;8.20;99.90;;;;;;5065159;28;20028;-62
2022/11/15 01:22:11;;;;;;;42.83;26.45;;;8.20;99.90;;;;;;5057575;28;20411;-62
2022/11/15 01:24:36;;;;;;;45.70;26.92;;;8.20;99.90;;;;;;5058842;28;20032;-62
2022/11/15 01:27:02;;;;;;;44.78;26.80;;;8.20;99.90;;;;;;5060468;28;20029;-62
2022/11/15 01:29:27;;;;;;;43.38;27.35;;;8.20;99.90;;;;;;5071951;28;20025;-62
2022/11/15 01:31:53;;;;;;;43.55;26.25;;;8.30;99.90;;;;;;5058714;28;20025;-62
2022/11/15 01:34:19;;;;;;;43.58;27.35;;;8.30;99.90;;;;;;5064792;28;20063;-62
2022/11/15 01:36:44;;;;;;;46.85;27.42;;;8.30;99.90;;;;;;5059410;28;20536;-62
2022/11/15 01:39:10;;;;;;;39.80;26.80;;;8.30;99.90;;;;;;5063945;28;20028;-62
2022/11/15 01:41:35;;;;;;;37.85;25.85;;;8.40;99.90;;;;;;5065281;28;20021;-62
2022/11/15 01:44:39;;;;;;;39.10;26.33;;;8.40;99.90;;;;;;5030318;28;1029727;-61
2022/11/15 01:47:22;;;;;;;41.53;25.02;;;8.50;99.90;;;;;;5062939;28;20799;-62
2022/11/15 01:50:22;;;;;;;41.90;25.83;;;8.50;99.90;;;;;;5058364;28;20103;-62
2022/11/15 01:52:47;;;;;;;;;;;8.50;99.90;;;;;;5066248;28;20032;-62
2022/11/15 01:55:24;;;;;;;40.90;25.80;;;8.60;99.90;;;;;;5066750;28;19991;-62
2022/11/15 01:57:53;;;;;;;39.40;24.70;;;8.60;99.90;;;;;;5064664;28;20433;-62
2022/11/15 02:00:19;;;;;;;35.03;25.50;;;8.70;99.90;;;;;;5064073;28;20095;-62
2022/11/15 02:02:45;;;;;;;38.58;26.50;;;8.70;99.90;;;;;;5067902;28;20601;-62
2022/11/15 02:05:10;;;;;;;39.83;26.60;;;8.70;99.90;;;;;;5065816;28;20033;-62
2022/11/15 02:07:36;;;;;;;36.90;26.20;;;8.80;99.90;;;;;;5067210;28;20373;-62
2022/11/15 02:10:11;;;;;;;39.38;25.25;;;8.80;99.90;;;;;;5062083;28;20112;-62
2022/11/15 02:12:37;;;;;;;37.13;26.27;;;8.90;99.90;;;;;;5069423;28;20388;-62
2022/11/15 02:15:05;;;;;;;34.25;24.90;;;8.90;99.90;;;;;;5074574;28;20029;-62
2022/11/15 02:17:39;;;;;;;36.40;25.40;;;8.90;99.90;;;;;;5061016;28;20075;-62
2022/11/15 02:20:26;;;;;;;35.55;25.13;;;9.00;99.90;;;;;;5063688;28;20365;-62
2022/11/15 02:23:10;;;;;;;36.15;25.30;;;9.00;99.90;;;;;;5070144;28;20025;-62
2022/11/15 02:25:44;;;;;;;38.30;25.73;;;9.00;99.90;;;;;;5063041;28;20033;-62
2022/11/15 02:28:30;;;;;;;37.55;25.33;;;9.10;99.90;;;;;;5084394;28;20468;-62
2022/11/15 02:31:11;;;;;;;36.55;25.92;;;9.10;99.90;;;;;;5068082;28;20036;-62
2022/11/15 02:34:11;;;;;;;34.38;26.00;;;9.10;99.90;;;;;;5068981;28;20073;-62
2022/11/15 02:36:50;;;;;;;32.72;22.98;;;9.20;99.90;;;;;;5059111;28;20120;-62
2022/11/15 02:39:25;;;;;;;36.03;25.30;;;9.20;99.90;;;;;;5064542;28;20025;-62
2022/11/15 02:42:00;;;;;;;33.03;24.60;;;9.20;99.90;;;;;;5068532;28;20032;-62
2022/11/15 02:44:46;;;;;;;42.58;26.90;;;9.30;99.90;;;;;;5059490;28;20515;-62
2022/11/15 02:47:16;;;;;;;35.65;25.77;;;9.40;99.90;;;;;;5069540;28;20027;-62
2022/11/15 02:49:53;;;;;;;34.10;25.15;;;9.40;99.90;;;;;;5060201;28;20025;-62
2022/11/15 02:52:27;;;;;;;35.80;25.58;;;9.60;99.90;;;;;;5062257;28;20107;-62
2022/11/15 02:54:57;;;;;;;37.90;26.38;;;9.60;99.90;;;;;;5060188;28;20388;-62
2022/11/15 02:57:44;;;;;;;36.80;26.50;;;9.60;99.90;;;;;;5067094;28;20064;-62
2022/11/15 03:00:15;;;;;;;33.83;24.48;;;9.70;99.90;;;;;;5057881;28;20362;-62
2022/11/15 03:03:13;;;;;;;34.47;25.60;;;9.80;99.90;;;;;;5062025;28;20083;-62
2022/11/15 03:05:55;;;;;;;35.10;25.23;;;9.90;99.90;;;;;;5058694;28;20414;-62
2022/11/15 03:08:29;;;;;;;36.35;25.80;;;9.90;99.90;;;;;;5059737;28;20066;-62
2022/11/15 03:11:13;;;;;;;36.65;26.50;;;9.90;99.90;;;;;;5062330;28;20076;-62
2022/11/15 03:13:44;;;;;;;37.97;26.60;;;10.00;99.90;;;;;;5071588;28;20031;-61
2022/11/15 03:16:13;;;;;;;36.95;26.20;;;10.10;99.90;;;;;;5067339;28;20024;-62
2022/11/15 03:18:43;;;;;;;38.28;25.55;;;10.10;99.90;;;;;;5062776;28;20039;-62
2022/11/15 03:21:14;;;;;;;34.80;25.65;;;10.20;99.90;;;;;;5066305;28;20020;-62
2022/11/15 03:23:41;;;;;;;38.85;25.17;;;10.20;99.90;;;;;;5062696;28;20025;-62
2022/11/15 03:26:09;;;;;;;36.78;25.98;;;10.30;99.90;;;;;;5068036;28;20154;-62
2022/11/15 03:28:55;;;;;;;37.20;26.35;;;10.30;99.90;;;;;;5079882;28;20452;-62
2022/11/15 03:34:15;;;;;;;36.33;25.52;;;10.40;99.90;;;;;;5060725;28;20067;-62
2022/11/15 03:36:41;;;;;;;34.38;25.90;;;10.40;99.90;;;;;;5062835;28;20048;-62
2022/11/15 03:39:08;;;;;;;31.30;23.55;;;10.40;99.90;;;;;;5068787;28;20149;-62
2022/11/15 03:41:46;;;;;;;33.83;25.70;;;10.50;99.90;;;;;;5064015;28;20031;-62
2022/11/15 03:44:34;;;;;;;35.05;24.85;;;10.50;99.90;;;;;;5066550;28;20047;-62
2022/11/15 03:47:23;;;;;;;31.55;24.25;;;10.50;99.90;;;;;;5063448;28;20435;-62
2022/11/15 03:49:55;;;;;;;34.35;25.50;;;10.60;99.90;;;;;;5065567;28;20507;-65
2022/11/15 03:52:22;;;;;;;32.72;23.88;;;10.50;99.90;;;;;;5069056;28;20104;-62
2022/11/15 03:54:54;;;;;;;32.92;22.92;;;10.60;99.90;;;;;;5063364;28;20404;-62
2022/11/15 03:57:19;;;;;;;32.70;24.13;;;10.60;99.90;;;;;;5062963;28;20096;-62
2022/11/15 03:59:45;;;;;;;33.83;24.42;;;10.70;99.90;;;;;;5069605;28;20091;-62
2022/11/15 04:02:12;;;;;;;34.00;23.90;;;10.70;99.90;;;;;;5062103;28;20036;-62
2022/11/15 04:04:38;;;;;;;35.97;24.40;;;10.70;99.90;;;;;;5069733;28;20048;-62
2022/11/15 04:07:03;;;;;;;33.47;23.35;;;10.70;99.90;;;;;;5067833;28;20021;-62
2022/11/15 04:09:29;;;;;;;34.22;25.48;;;10.80;99.90;;;;;;5068725;28;20033;-62
2022/11/15 04:11:54;;;;;;;33.55;25.38;;;10.80;99.90;;;;;;5060841;28;20031;-62
2022/11/15 04:14:20;;;;;;;34.60;25.38;;;10.80;99.90;;;;;;5066335;28;20028;-62
2022/11/15 04:16:46;;;;;;;31.35;23.20;;;10.80;99.90;;;;;;5063515;28;20116;-63
2022/11/15 04:24:39;;;;;;;32.92;23.23;;;10.80;99.90;;;;;;5066482;28;20557;-62
2022/11/15 04:27:04;;;;;;;34.35;24.00;;;10.90;99.90;;;;;;5057313;28;20033;-62
2022/11/15 04:29:36;;;;;;;29.75;22.90;;;10.90;99.90;;;;;;5066373;28;20028;-62
2022/11/15 04:32:06;;;;;;;29.88;23.90;;;10.90;99.90;;;;;;5060719;28;20043;-62
2022/11/15 04:34:32;;;;;;;29.65;22.63;;;10.90;99.90;;;;;;5066802;28;20100;-62
2022/11/15 04:37:13;;;;;;;33.22;25.17;;;10.90;99.90;;;;;;5066639;28;20092;-62
2022/11/15 04:39:40;;;;;;;32.45;24.42;;;10.90;99.90;;;;;;5063517;28;20025;-62
2022/11/15 04:42:07;;;;;;;30.40;23.58;;;10.90;99.90;;;;;;5062933;28;20128;-62
2022/11/15 04:44:32;;;;;;;33.30;25.05;;;10.90;99.90;;;;;;5057423;28;20056;-62
2022/11/15 04:46:58;;;;;;;33.85;25.90;;;10.90;99.90;;;;;;5055983;28;20516;-62
2022/11/15 04:49:23;;;;;;;32.40;24.67;;;10.90;99.90;;;;;;5065530;28;20028;-62
2022/11/15 04:51:49;;;;;;;40.13;26.20;;;10.90;99.90;;;;;;5064881;28;20063;-63
2022/11/15 04:54:15;;;;;;;33.47;23.92;;;11.00;99.90;;;;;;5073139;28;20436;-62
2022/11/15 04:56:40;;;;;;;34.42;25.33;;;11.00;99.90;;;;;;5056978;28;20554;-62
2022/11/15 04:59:06;;;;;;;36.05;25.58;;;11.00;99.90;;;;;;5064660;28;20020;-62
2022/11/15 05:01:31;;;;;;;36.90;25.25;;;11.00;99.90;;;;;;5079279;28;20381;-62
2022/11/15 05:06:41;;;;;;;38.45;25.60;;;11.00;99.90;;;;;;5064792;28;20506;-62
2022/11/15 05:09:07;;;;;;;34.47;25.88;;;11.00;99.90;;;;;;5066239;28;20025;-62
2022/11/15 05:11:32;;;;;;;39.17;25.20;;;11.10;99.90;;;;;;5060607;28;20053;-62
2022/11/15 05:13:58;;;;;;;40.40;25.00;;;11.10;99.90;;;;;;5059737;28;20021;-62
2022/11/15 05:16:23;;;;;;;39.90;25.90;;;11.10;99.90;;;;;;5065008;28;20025;-62
2022/11/15 05:18:53;;;;;;;35.55;25.60;;;11.10;99.90;;;;;;5067283;28;20060;-62
2022/11/15 05:21:19;;;;;;;35.38;26.58;;;11.20;99.90;;;;;;5067098;28;20217;-62
2022/11/15 05:23:44;;;;;;;36.63;25.83;;;11.20;99.90;;;;;;5061629;28;20515;-62
2022/11/15 05:26:10;;;;;;;39.92;25.58;;;11.20;99.90;;;;;;5062477;28;20043;-62
2022/11/15 05:28:36;;;;;;;37.08;25.13;;;11.20;99.90;;;;;;5065394;28;20511;-62
2022/11/15 05:31:14;;;;;;;36.28;25.48;;;11.20;99.90;;;;;;5063210;28;20021;-62
2022/11/15 05:33:41;;;;;;;36.00;24.83;;;11.20;99.90;;;;;;5083797;28;20074;-62
2022/11/15 05:36:37;;;;;;;34.35;24.95;;;11.20;99.90;;;;;;5065875;28;20057;-62
2022/11/15 05:39:05;;;;;;;37.22;25.33;;;11.20;99.90;;;;;;5043037;28;20526;-62
2022/11/15 05:41:35;;;;;;;36.55;25.27;;;11.20;99.90;;;;;;5069194;28;20028;-62
2022/11/15 05:44:02;;;;;;;39.85;25.77;;;11.20;99.90;;;;;;5064350;28;20381;-63
2022/11/15 05:46:28;;;;;;;36.72;25.10;;;11.20;99.90;;;;;;5059981;28;20032;-62
2022/11/15 05:48:55;;;;;;;36.03;25.27;;;11.20;99.90;;;;;;5075928;28;20021;-62
2022/11/15 05:51:22;;;;;;;36.63;24.73;;;11.30;99.90;;;;;;5067623;28;20051;-62
2022/11/15 05:53:49;;;;;;;36.42;24.17;;;11.30;99.90;;;;;;5066918;28;20024;-62
2022/11/15 05:56:15;;;;;;;34.38;25.00;;;11.30;99.90;;;;;;5065549;28;20492;-62
2022/11/15 05:58:41;;;;;;;36.88;25.70;;;11.30;99.90;;;;;;5065207;28;20078;-62
2022/11/15 06:01:07;;;;;;;35.80;24.20;;;11.30;99.90;;;;;;5060993;28;20028;-62
2022/11/15 06:03:33;;;;;;;32.30;24.55;;;11.30;99.90;;;;;;5060671;28;20036;-62
2022/11/15 06:05:58;;;;;;;34.80;25.67;;;11.30;99.90;;;;;;5059978;28;20434;-62
2022/11/15 06:08:24;;;;;;;34.92;25.30;;;11.30;99.90;;;;;;5065455;28;20401;-62
2022/11/15 06:10:49;;;;;;;36.00;24.65;;;11.30;99.90;;;;;;5073976;28;20060;-62
2022/11/15 06:13:15;;;;;;;32.08;23.95;;;11.30;99.90;;;;;;5058109;28;20105;-62
2022/11/15 06:15:40;;;;;;;36.00;24.63;;;11.30;99.90;;;;;;5059264;28;20475;-62
2022/11/15 06:18:06;;;;;;;31.23;22.85;;;11.30;99.90;;;;;;5059885;28;20036;-62
2022/11/15 06:20:31;;;;;;;35.58;23.70;;;11.30;99.90;;;;;;5064419;28;20082;-62
2022/11/15 06:22:58;;;;;;;36.35;23.20;;;11.30;99.90;;;;;;5056942;28;20047;-62
2022/11/15 06:25:24;;;;;;;31.17;22.67;;;11.30;99.90;;;;;;5064374;28;20029;-62
2022/11/15 06:27:54;;;;;;;30.35;23.33;;;11.30;99.90;;;;;;5079801;28;20034;-62
2022/11/15 06:30:21;;;;;;;27.85;22.65;;;11.30;99.90;;;;;;5069923;28;20020;-62
2022/11/15 06:32:47;;;;;;;32.70;22.83;;;11.30;99.90;;;;;;5071151;28;20104;-62
2022/11/15 06:35:13;;;;;;;29.90;21.27;;;11.30;99.90;;;;;;5062202;28;20108;-62
2022/11/15 06:37:39;;;;;;;25.58;20.17;;;11.40;99.90;;;;;;5072404;28;20638;-62
2022/11/15 06:40:05;;;;;;;26.33;20.38;;;11.40;99.90;;;;;;5072798;28;20029;-62
2022/11/15 06:42:30;;;;;;;28.73;20.65;;;11.40;99.90;;;;;;5073851;28;20016;-62
2022/11/15 06:44:56;;;;;;;25.95;19.45;;;11.40;99.90;;;;;;5074551;28;20109;-62
2022/11/15 06:47:21;;;;;;;33.60;21.55;;;11.40;99.90;;;;;;5074130;28;20388;-62
2022/11/15 06:49:47;;;;;;;26.83;20.38;;;11.40;99.90;;;;;;5073029;28;20032;-62
2022/11/15 06:52:13;;;;;;;29.85;21.85;;;11.40;99.90;;;;;;5069717;28;20167;-62
2022/11/15 06:54:38;;;;;;;25.15;18.98;;;11.40;99.90;;;;;;5087098;28;20024;-62
2022/11/15 06:57:04;;;;;;;26.58;18.00;;;11.40;99.90;;;;;;5071805;28;20027;-62
2022/11/15 06:59:30;;;;;;;28.02;19.52;;;11.50;99.90;;;;;;5073623;28;20472;-62
2022/11/15 07:01:55;;;;;;;26.50;21.00;;;11.50;99.90;;;;;;5074647;28;20107;-62
2022/11/15 07:04:21;;;;;;;27.17;21.00;;;11.50;99.90;;;;;;5073671;28;20024;-62
2022/11/15 07:06:48;;;;;;;26.45;21.27;;;11.40;99.90;;;;;;5068200;28;20020;-62
2022/11/15 07:09:14;;;;;;;25.40;19.90;;;11.40;99.90;;;;;;5066991;28;20032;-62
2022/11/15 07:11:42;;;;;;;26.58;19.02;;;11.40;99.90;;;;;;5074293;28;20025;-62
2022/11/15 07:14:08;;;;;;;21.38;18.75;;;11.40;99.90;;;;;;5074726;28;20108;-62
2022/11/15 07:16:33;;;;;;;22.23;17.92;;;11.40;99.90;;;;;;5073861;28;20448;-62
2022/11/15 07:18:59;;;;;;;25.23;17.85;;;11.40;99.90;;;;;;5072918;28;20021;-62
2022/11/15 07:21:24;;;;;;;25.42;19.70;;;11.40;99.90;;;;;;5074340;28;20024;-62
2022/11/15 07:23:50;;;;;;;21.25;17.27;;;11.40;99.90;;;;;;5073757;28;20024;-62
2022/11/15 07:26:15;;;;;;;24.73;19.27;;;11.40;99.90;;;;;;5068899;28;20477;-62
2022/11/15 07:28:41;;;;;;;23.67;18.33;;;11.40;99.90;;;;;;5070526;28;20036;-62
2022/11/15 07:31:08;;;;;;;25.30;18.60;;;11.40;99.90;;;;;;5070565;28;20021;-62
2022/11/15 07:33:34;;;;;;;23.08;17.63;;;11.50;99.90;;;;;;5070125;28;20029;-62
2022/11/15 07:36:01;;;;;;;26.92;19.33;;;11.50;99.90;;;;;;5068869;28;20444;-62
2022/11/15 07:38:28;;;;;;;26.98;18.83;;;11.50;99.90;;;;;;5070645;28;20480;-62
2022/11/15 07:40:58;;;;;;;23.50;17.50;;;11.50;99.90;;;;;;5071943;28;20028;-62
2022/11/15 07:43:24;;;;;;;24.13;18.65;;;11.50;99.90;;;;;;5060694;28;20103;-62
2022/11/15 07:45:50;;;;;;;25.27;18.40;;;11.50;99.90;;;;;;5073946;28;20132;-62
2022/11/15 07:48:15;;;;;;;23.25;18.45;;;11.60;99.90;;;;;;5072668;28;20103;-62
2022/11/15 07:50:42;;;;;;;22.70;18.25;;;11.50;99.90;;;;;;5073982;28;20583;-62
2022/11/15 07:53:09;;;;;;;23.05;17.75;;;11.50;99.90;;;;;;5072657;28;20024;-62
2022/11/15 07:55:34;;;;;;;25.90;18.92;;;11.50;99.90;;;;;;5072253;28;20066;-62
2022/11/15 07:58:05;;;;;;;27.30;19.27;;;11.40;99.90;;;;;;5075254;28;20059;-62
2022/11/15 08:00:31;;;;;;;26.05;18.90;;;11.50;99.90;;;;;;5082858;28;20033;-62
2022/11/15 08:03:10;;;;;;;27.00;19.08;;;11.40;99.90;;;;;;5059702;28;20377;-62
2022/11/15 08:05:38;;;;;;;24.13;18.23;;;11.50;99.90;;;;;;5055532;28;20044;-63
2022/11/15 08:08:04;;;;;;;26.02;17.92;;;11.40;99.90;;;;;;5058140;28;20290;-62
2022/11/15 08:10:30;;;;;;;24.08;18.17;;;11.40;99.90;;;;;;5072623;28;20033;-62
2022/11/15 08:13:00;;;;;;;25.98;18.77;;;11.50;99.90;;;;;;5061540;28;20091;-62
2022/11/15 08:15:26;;;;;;;25.67;19.13;;;11.50;99.90;;;;;;5073722;28;20389;-62
2022/11/15 08:17:59;;;;;;;27.10;19.65;;;11.50;99.90;;;;;;5058154;28;20032;-62
2022/11/15 08:20:29;;;;;;;23.92;18.67;;;11.50;99.90;;;;;;5062338;28;20029;-62
2022/11/15 08:22:56;;;;;;;22.80;18.80;;;11.50;99.90;;;;;;5063620;28;20089;-61
2022/11/15 08:25:21;;;;;;;24.38;18.40;;;11.50;99.90;;;;;;5073253;28;20021;-61
2022/11/15 08:27:47;;;;;;;25.75;19.17;;;11.40;99.90;;;;;;5073416;28;20396;-61
2022/11/15 08:30:13;;;;;;;22.42;16.90;;;11.40;99.90;;;;;;5072623;28;20032;-62
2022/11/15 08:32:38;;;;;;;26.45;18.08;;;11.40;99.90;;;;;;5073042;28;20013;-62
2022/11/15 08:35:05;;;;;;;29.13;18.50;;;11.40;99.90;;;;;;5071293;28;20556;-61
2022/11/15 08:37:30;;;;;;;27.45;19.10;;;11.40;99.90;;;;;;5069782;28;20080;-62
2022/11/15 08:39:56;;;;;;;23.52;18.42;;;11.40;99.90;;;;;;5070948;28;20491;-62
2022/11/15 08:42:21;;;;;;;23.73;18.55;;;11.40;99.90;;;;;;5070886;28;21190;-62
2022/11/15 08:44:47;;;;;;;23.13;18.20;;;11.40;99.90;;;;;;5070690;28;20051;-62
2022/11/15 08:47:13;;;;;;;22.88;17.65;;;11.40;99.90;;;;;;5067342;28;20115;-62
2022/11/15 08:49:39;;;;;;;20.63;17.30;;;11.40;99.90;;;;;;5071624;28;20016;-62
2022/11/15 12:32:03;;;;;;;3.78;0.80;;;17.90;70.90;;;;;;5108699;27;20887;-63
2022/11/15 12:34:40;;;;;;;5.13;0.85;;;18.20;70.70;;;;;;5109759;27;20023;-63
2022/11/15 12:37:45;;;;;;;4.15;0.98;;;18.30;70.90;;;;;;5112987;28;20442;-58
2022/11/15 12:40:21;;;;;;;4.50;0.98;;;18.30;68.60;;;;;;5136896;27;20015;-63
2022/11/15 12:43:15;;;;;;;2.25;1.20;;;18.30;68.60;;;;;;5109997;27;20020;-63
2022/11/15 12:45:45;;;;;;;3.97;0.82;;;18.10;68.30;;;;;;5108638;27;20500;-63
2022/11/15 12:48:17;;;;;;;2.03;0.60;;;17.80;68.50;;;;;;5095879;28;20034;-63
2022/11/15 12:50:53;;;;;;;2.75;0.95;;;17.50;68.50;;;;;;5093198;28;20022;-63
2022/11/15 12:53:24;;;;;;;2.30;0.75;;;17.60;70.20;;;;;;5124823;28;20098;-63
2022/11/15 12:56:18;;;;;;;5.07;1.10;;;17.90;70.10;;;;;;5124656;27;20073;-63
2022/11/15 12:58:48;;;;;;;5.13;0.90;;;17.90;67.60;;;;;;5097238;28;20019;-63
2022/11/15 13:01:32;;;;;;;4.20;0.90;;;17.70;68.00;;;;;;5128215;28;20065;-63
2022/11/15 13:04:18;;;;;;;2.42;0.70;;;17.60;68.90;;;;;;5111794;27;20028;-63
2022/11/15 13:06:46;;;;;;;5.10;0.90;;;17.20;70.30;;;;;;5109001;27;20026;-63
2022/11/15 13:09:35;;;;;;;2.83;1.15;;;16.90;71.60;;;;;;5109846;28;20016;-63
2022/11/15 13:12:08;;;;;;;3.72;1.52;;;16.60;72.10;;;;;;5117288;27;20046;-62
2022/11/15 13:14:36;;;;;;;5.43;1.40;;;16.40;73.50;;;;;;5113482;27;20051;-62
2022/11/15 13:17:22;;;;;;;4.00;1.38;;;16.30;73.80;;;;;;5091963;28;20384;-62
2022/11/15 13:20:14;;;;;;;4.18;0.93;;;16.00;74.90;;;;;;5110076;27;20035;-62
2022/11/15 13:22:59;;;;;;;4.22;1.10;;;15.80;75.60;;;;;;5109891;28;20015;-62
2022/11/15 13:25:36;;;;;;;4.97;1.10;;;15.80;75.90;;;;;;5110050;27;20344;-63
2022/11/15 13:28:14;;;;;;;2.55;0.88;;;15.60;75.40;;;;;;5108978;27;20418;-62
2022/11/15 13:31:17;;;;;;;1.83;0.68;;;15.50;76.20;;;;;;5103847;28;20419;-58
2022/11/15 13:33:43;;;;;;;3.33;0.95;;;15.30;77.60;;;;;;5095262;28;20055;-58
2022/11/15 13:36:16;;;;;;;2.92;0.70;;;15.10;78.00;;;;;;5095869;28;20060;-58
2022/11/15 13:38:43;;;;;;;4.78;0.93;;;15.10;78.90;;;;;;5095404;28;20062;-58
2022/11/15 13:41:18;;;;;;;3.35;0.70;;;15.00;78.70;;;;;;5095192;28;20499;-58
2022/11/15 13:43:43;;;;;;;1.77;0.95;;;14.90;79.60;;;;;;5095495;28;20016;-58
2022/11/15 13:46:16;;;;;;;3.40;0.82;;;14.80;79.20;;;;;;5095723;28;20026;-57
2022/11/15 13:48:44;;;;;;;4.75;0.90;;;14.70;80.00;;;;;;5095510;28;20085;-58
2022/11/15 13:51:27;;;;;;;2.63;0.60;;;14.60;80.00;;;;;;5095102;28;20036;-58
2022/11/15 13:54:01;;;;;;;3.35;0.70;;;14.50;80.40;;;;;;5094982;28;20020;-58
2022/11/15 13:56:29;;;;;;;3.40;1.02;;;14.30;81.20;;;;;;5076617;28;20031;-58
2022/11/15 13:58:55;;;;;;;2.95;0.90;;;14.30;81.80;;;;;;5077533;28;20059;-58
2022/11/15 14:01:21;;;;;;;2.58;0.98;;;14.20;81.80;;;;;;5094533;28;20056;-58
2022/11/15 14:03:55;;;;;;;2.70;0.60;;;14.10;82.30;;;;;;5099762;28;20383;-57
2022/11/15 14:06:24;;;;;;;2.22;0.70;;;14.00;82.60;;;;;;5094100;28;20387;-58
2022/11/15 14:09:04;;;;;;;3.37;0.80;;;13.90;83.90;;;;;;5100087;28;20441;-58
2022/11/15 14:11:30;;;;;;;5.78;1.15;;;13.80;83.20;;;;;;5098246;28;20262;-57
2022/11/15 14:14:08;;;;;;;3.45;0.85;;;13.70;83.50;;;;;;5111791;28;20027;-58
2022/11/15 14:16:41;;;;;;;3.15;0.90;;;13.70;83.10;;;;;;5097705;28;20024;-58
2022/11/15 14:19:19;;;;;;;5.22;0.70;;;13.70;84.00;;;;;;5101113;28;20130;-58
2022/11/15 14:22:14;;;;;;;3.13;0.85;;;13.60;84.10;;;;;;5105200;28;20028;-57
2022/11/15 14:24:41;;;;;;;5.13;0.70;;;13.60;84.30;;;;;;5104899;28;20028;-57
2022/11/15 14:27:35;;;;;;;2.95;0.70;;;13.50;84.30;;;;;;5104310;28;20552;-57
2022/11/15 14:30:01;;;;;;;3.10;0.80;;;13.50;84.00;;;;;;5078350;28;20554;-57
2022/11/15 14:32:29;;;;;;;1.95;0.50;;;13.50;84.80;;;;;;5113459;28;20149;-58
2022/11/15 14:34:58;;;;;;;2.13;0.60;;;13.60;85.00;;;;;;5095389;28;20396;-58
2022/11/15 14:37:33;;;;;;;4.88;0.60;;;13.60;84.30;;;;;;5096974;28;20030;-58
2022/11/15 14:39:59;;;;;;;7.60;0.80;;;13.60;84.10;;;;;;5094213;28;20017;-58
2022/11/15 14:42:25;;;;;;;2.58;0.70;;;13.50;84.20;;;;;;5096627;28;20016;-58
2022/11/15 14:44:51;;;;;;;2.60;0.47;;;13.40;84.50;;;;;;5093312;28;20499;-58
2022/11/15 14:47:17;;;;;;;3.70;0.73;;;13.50;84.80;;;;;;5095379;28;20016;-58
2022/11/15 14:49:43;;;;;;;2.90;0.70;;;13.50;84.50;;;;;;5076002;28;20020;-59
2022/11/15 14:52:29;;;;;;;5.72;1.05;;;13.40;84.00;;;;;;5094020;28;20366;-58
2022/11/15 14:54:56;;;;;;;3.05;0.65;;;13.50;83.90;;;;;;5107593;28;20032;-58
2022/11/15 14:57:22;;;;;;;3.22;0.60;;;13.40;83.20;;;;;;5093426;28;20016;-57
2022/11/15 14:59:47;;;;;;;2.13;0.50;;;13.40;83.40;;;;;;5094251;28;20081;-58
2022/11/15 15:02:19;;;;;;;2.13;0.60;;;13.40;83.30;;;;;;5094691;28;20026;-58
2022/11/15 15:04:45;;;;;;;2.22;0.40;;;13.40;83.00;;;;;;5109859;28;20051;-58
2022/11/15 15:07:10;;;;;;;3.55;0.57;;;13.40;82.80;;;;;;5093639;28;20059;-58
2022/11/15 15:09:36;;;;;;;3.50;0.80;;;13.40;82.70;;;;;;5093693;28;20028;-58
2022/11/15 15:12:01;;;;;;;2.33;0.45;;;13.40;82.60;;;;;;5093329;28;20400;-58
2022/11/15 15:14:27;;;;;;;3.97;0.98;;;13.40;82.60;;;;;;5092903;28;20070;-58
2022/11/15 15:16:52;;;;;;;1.63;0.40;;;13.40;82.60;;;;;;5095797;28;20499;-58
2022/11/15 15:19:18;;;;;;;2.08;0.50;;;13.40;83.00;;;;;;5097568;28;20054;-58
2022/11/15 15:21:43;;;;;;;4.15;0.57;;;13.40;83.40;;;;;;5104223;28;20077;-58
2022/11/15 15:24:15;;;;;;;3.42;0.60;;;13.30;83.30;;;;;;5104672;28;20034;-59
2022/11/15 15:26:41;;;;;;;3.55;0.70;;;13.30;83.00;;;;;;5104300;28;20430;-58
2022/11/15 15:29:08;;;;;;;4.53;0.80;;;13.20;83.60;;;;;;5085577;28;20020;-58
2022/11/15 15:31:34;;;;;;;2.58;0.75;;;13.10;83.50;;;;;;5092444;28;20523;-58
2022/11/15 15:33:59;;;;;;;2.67;0.50;;;13.10;84.10;;;;;;5082791;28;20027;-58
2022/11/15 15:36:25;;;;;;;3.05;0.65;;;13.10;84.30;;;;;;5099573;28;20024;-58
2022/11/15 15:38:50;;;;;;;3.92;0.68;;;13.10;84.50;;;;;;5108329;28;20023;-57
2022/11/15 15:41:16;;;;;;;5.47;0.70;;;13.00;84.90;;;;;;5104082;28;20417;-58
2022/11/15 15:43:42;;;;;;;3.03;0.70;;;13.00;85.10;;;;;;5098955;28;20051;-58
2022/11/15 15:46:11;;;;;;;2.97;0.80;;;13.00;85.10;;;;;;5095426;28;20488;-58
2022/11/15 15:48:38;;;;;;;1.65;0.63;;;13.00;85.70;;;;;;5089226;28;20459;-58
2022/11/15 15:51:03;;;;;;;2.45;0.60;;;13.00;85.80;;;;;;5074290;28;20031;-58
2022/11/15 15:53:30;;;;;;;3.72;0.70;;;12.90;86.20;;;;;;5099759;28;20024;-58
2022/11/15 15:55:55;;;;;;;5.55;1.02;;;12.90;86.40;;;;;;5101656;28;20043;-57
2022/11/15 15:58:21;;;;;;;3.58;0.70;;;12.90;86.90;;;;;;5104407;28;20364;-58
2022/11/15 16:00:46;;;;;;;2.53;0.60;;;12.90;87.30;;;;;;5099576;28;20023;-58
2022/11/15 16:03:12;;;;;;;3.65;0.80;;;12.80;88.00;;;;;;5079793;28;20023;-58
2022/11/15 16:05:37;;;;;;;3.58;0.80;;;12.80;88.50;;;;;;5081142;28;20020;-58
2022/11/15 16:08:04;;;;;;;4.82;1.25;;;12.80;88.90;;;;;;5091697;28;20395;-58
2022/11/15 16:10:33;;;;;;;4.05;0.90;;;12.80;89.50;;;;;;5092639;28;20038;-58
2022/11/15 16:12:59;;;;;;;3.45;1.08;;;12.80;90.00;;;;;;5077119;28;20015;-58
2022/11/15 16:15:27;;;;;;;3.63;1.45;;;12.80;90.30;;;;;;5102978;28;20096;-58
2022/11/15 16:17:54;;;;;;;3.22;0.90;;;12.80;90.40;;;;;;5100781;28;20031;-58
2022/11/15 16:20:29;;;;;;;3.65;1.00;;;12.80;90.70;;;;;;5074412;28;20020;-58
2022/11/15 16:22:54;;;;;;;2.05;0.63;;;12.80;90.80;;;;;;5105736;28;20020;-58
2022/11/15 16:25:20;;;;;;;3.63;1.02;;;12.80;91.10;;;;;;5120033;27;20027;-58
2022/11/15 16:27:46;;;;;;;3.97;1.02;;;12.80;91.40;;;;;;5098930;28;20015;-57
2022/11/15 16:30:17;;;;;;;4.90;1.15;;;12.80;91.70;;;;;;5117442;28;20046;-58
2022/11/15 16:32:42;;;;;;;3.25;1.10;;;12.70;92.00;;;;;;5097043;28;20024;-57
2022/11/15 16:35:16;;;;;;;5.78;1.00;;;12.70;92.40;;;;;;5099509;28;20031;-57
2022/11/15 16:37:43;;;;;;;4.28;1.00;;;12.70;92.70;;;;;;5098959;28;20027;-58
2022/11/15 16:40:30;;;;;;;4.25;1.15;;;12.70;93.10;;;;;;5109139;28;20047;-58